createdAt,value
2018-06-19T00:00:23.726Z,87.05
2018-06-19T00:01:23.682Z,87.15
2018-06-19T00:02:23.659Z,87.15
2018-06-19T00:03:23.697Z,87.15
2018-06-19T00:04:23.616Z,87.15
2018-06-19T00:05:23.604Z,86.85
2018-06-19T00:06:23.569Z,86.85
2018-06-19T00:07:23.544Z,87.24
2018-06-19T00:08:23.575Z,86.71
2018-06-19T00:09:23.499Z,86.66
2018-06-19T00:10:23.494Z,86.85
2018-06-19T00:11:23.496Z,87.38
2018-06-19T00:12:23.428Z,87.34
2018-06-19T00:13:23.406Z,87.29
2018-06-19T00:14:23.384Z,86.95
2018-06-19T00:15:23.404Z,87.34
2018-06-19T00:16:23.335Z,86.80
2018-06-19T00:17:23.312Z,86.71
2018-06-19T00:18:23.338Z,86.85
2018-06-19T00:19:23.268Z,86.71
2018-06-19T00:20:23.260Z,86.80
2018-06-19T00:21:23.225Z,86.42
2018-06-19T00:22:23.198Z,86.99
2018-06-19T00:23:23.219Z,86.71
2018-06-19T00:24:23.151Z,86.71
2018-06-19T00:25:23.181Z,86.80
2018-06-19T00:26:23.108Z,86.90
2018-06-19T00:27:23.084Z,86.52
2018-06-19T00:28:23.058Z,86.80
2018-06-19T00:29:23.088Z,86.71
2018-06-19T00:30:23.023Z,86.22
2018-06-19T00:31:23.009Z,86.04
2018-06-19T00:32:22.975Z,86.32
2018-06-19T00:33:22.950Z,86.13
2018-06-19T00:34:22.971Z,86.42
2018-06-19T00:35:22.902Z,86.52
2018-06-19T00:36:22.915Z,86.22
2018-06-19T00:37:22.875Z,85.75
2018-06-19T00:38:22.834Z,86.13
2018-06-19T00:39:22.810Z,86.32
2018-06-19T00:40:22.784Z,86.13
2018-06-19T00:41:22.799Z,86.42
2018-06-19T00:42:22.739Z,86.42
2018-06-19T00:43:22.719Z,86.32
2018-06-19T00:44:22.694Z,86.13
2018-06-19T00:45:22.675Z,86.32
2018-06-19T00:46:22.695Z,86.22
2018-06-19T00:47:22.669Z,86.61
2018-06-19T00:48:23.309Z,86.42
2018-06-19T00:49:22.577Z,86.71
2018-06-19T00:50:22.562Z,86.22
2018-06-19T00:51:22.534Z,86.71
2018-06-19T00:52:24.884Z,86.80
2018-06-19T00:53:22.491Z,86.80
2018-06-19T00:54:22.469Z,86.52
2018-06-19T00:55:22.440Z,86.71
2018-06-19T00:56:22.416Z,86.52
2018-06-19T00:57:22.441Z,86.61
2018-06-19T00:58:22.432Z,86.61
2018-06-19T00:59:22.356Z,86.80
2018-06-19T01:00:22.336Z,86.32
2018-06-19T01:01:22.304Z,86.61
2018-06-19T01:02:22.286Z,86.71
2018-06-19T01:03:22.300Z,86.80
2018-06-19T01:04:22.238Z,86.80
2018-06-19T01:05:22.220Z,86.71
2018-06-19T01:06:22.192Z,86.71
2018-06-19T01:07:22.166Z,86.80
2018-06-19T01:08:22.191Z,86.90
2018-06-19T01:09:22.120Z,87.19
2018-06-19T01:10:22.109Z,86.90
2018-06-19T01:11:22.079Z,87.38
2018-06-19T01:12:22.079Z,87.19
2018-06-19T01:13:22.083Z,87.38
2018-06-19T01:14:22.057Z,87.76
2018-06-19T01:15:21.983Z,87.86
2018-06-19T01:16:21.960Z,87.86
2018-06-19T01:17:21.949Z,88.30
2018-06-19T01:18:21.915Z,88.53
2018-06-19T01:19:21.937Z,88.01
2018-06-19T01:20:21.869Z,88.10
2018-06-19T01:21:21.849Z,88.10
2018-06-19T01:22:22.725Z,88.20
2018-06-19T01:23:21.804Z,88.59
2018-06-19T01:24:21.884Z,88.20
2018-06-19T01:25:21.756Z,88.78
2018-06-19T01:26:21.729Z,89.16
2018-06-19T01:27:21.713Z,89.45
2018-06-19T01:28:21.685Z,89.74
2018-06-19T01:29:21.706Z,89.07
2018-06-19T01:30:21.636Z,89.54
2018-06-19T01:31:21.659Z,89.98
2018-06-19T01:32:21.595Z,89.79
2018-06-19T01:33:21.567Z,90.46
2018-06-19T01:34:21.576Z,90.46
2018-06-19T01:35:21.525Z,90.46
2018-06-19T01:36:21.539Z,91.04
2018-06-19T01:37:21.477Z,91.52
2018-06-19T01:38:21.469Z,91.90
2018-06-19T01:39:21.431Z,92.43
2018-06-19T01:40:21.897Z,92.63
2018-06-19T01:41:21.386Z,92.72
2018-06-19T01:42:21.355Z,92.63
2018-06-19T01:43:21.338Z,93.10
2018-06-19T01:44:21.319Z,93.49
2018-06-19T01:45:21.332Z,93.59
2018-06-19T01:46:21.327Z,94.16
2018-06-19T01:47:21.246Z,94.35
2018-06-19T01:48:21.296Z,94.21
2018-06-19T01:49:21.196Z,94.69
2018-06-19T01:50:21.170Z,95.41
2018-06-19T01:51:21.212Z,95.26
2018-06-19T01:52:21.123Z,95.46
2018-06-19T01:53:21.098Z,95.46
2018-06-19T01:54:21.075Z,95.17
2018-06-19T01:55:21.049Z,95.46
2018-06-19T01:56:21.067Z,95.65
2018-06-19T01:57:21.061Z,95.75
2018-06-19T01:58:21.023Z,95.94
2018-06-19T01:59:20.957Z,96.03
2018-06-19T02:00:20.932Z,96.99
2018-06-19T02:01:20.907Z,96.99
2018-06-19T02:02:20.883Z,96.70
2018-06-19T02:03:20.901Z,97.28
2018-06-19T02:04:20.837Z,97.52
2018-06-19T02:05:20.815Z,97.61
2018-06-19T02:06:20.792Z,97.52
2018-06-19T02:07:20.763Z,97.14
2018-06-19T02:08:20.779Z,98.10
2018-06-19T02:09:20.717Z,98.00
2018-06-19T02:10:21.329Z,98.19
2018-06-19T02:11:20.669Z,98.57
2018-06-19T02:12:20.644Z,98.19
2018-06-19T02:13:20.676Z,98.48
2018-06-19T02:14:20.601Z,98.28
2018-06-19T02:15:21.351Z,98.48
2018-06-19T02:16:20.542Z,98.10
2018-06-19T02:17:20.519Z,98.48
2018-06-19T02:18:20.536Z,97.61
2018-06-19T02:19:21.331Z,97.66
2018-06-19T02:20:20.444Z,97.95
2018-06-19T02:21:20.425Z,97.86
2018-06-19T02:22:20.884Z,97.86
2018-06-19T02:23:20.374Z,97.86
2018-06-19T02:24:20.392Z,98.43
2018-06-19T02:25:20.324Z,98.43
2018-06-19T02:26:20.300Z,97.76
2018-06-19T02:27:20.279Z,97.86
2018-06-19T02:28:20.250Z,97.86
2018-06-19T02:29:20.291Z,97.76
2018-06-19T02:30:20.833Z,97.47
2018-06-19T02:31:20.188Z,97.86
2018-06-19T02:32:20.166Z,97.86
2018-06-19T02:33:20.833Z,98.05
2018-06-19T02:34:20.165Z,97.56
2018-06-19T02:35:20.084Z,97.76
2018-06-19T02:36:20.841Z,97.47
2018-06-19T02:37:20.050Z,97.86
2018-06-19T02:38:20.012Z,97.76
2018-06-19T02:39:20.033Z,97.66
2018-06-19T02:40:19.964Z,97.76
2018-06-19T02:41:19.984Z,97.76
2018-06-19T02:42:19.916Z,97.66
2018-06-19T02:43:19.896Z,98.24
2018-06-19T02:44:19.871Z,98.33
2018-06-19T02:45:20.837Z,98.33
2018-06-19T02:46:19.894Z,97.76
2018-06-19T02:47:19.801Z,97.95
2018-06-19T02:48:19.771Z,97.47
2018-06-19T02:49:20.340Z,97.47
2018-06-19T02:50:19.724Z,97.76
2018-06-19T02:51:19.760Z,97.56
2018-06-19T02:52:19.684Z,97.76
2018-06-19T02:53:19.653Z,97.71
2018-06-19T02:54:20.337Z,97.81
2018-06-19T02:55:19.617Z,97.66
2018-06-19T02:56:19.640Z,97.61
2018-06-19T02:57:19.558Z,97.14
2018-06-19T02:58:22.341Z,97.71
2018-06-19T02:59:19.509Z,97.28
2018-06-19T03:00:19.535Z,97.14
2018-06-19T03:01:19.507Z,96.85
2018-06-19T03:02:19.448Z,97.04
2018-06-19T03:03:19.463Z,96.75
2018-06-19T03:04:19.392Z,97.04
2018-06-19T03:05:19.373Z,96.18
2018-06-19T03:06:19.346Z,95.98
2018-06-19T03:07:19.370Z,96.18
2018-06-19T03:08:19.850Z,95.98
2018-06-19T03:09:19.274Z,95.89
2018-06-19T03:10:19.250Z,96.27
2018-06-19T03:11:19.227Z,96.08
2018-06-19T03:12:19.250Z,95.98
2018-06-19T03:13:19.176Z,95.84
2018-06-19T03:14:19.391Z,95.75
2018-06-19T03:15:19.131Z,95.26
2018-06-19T03:16:19.104Z,95.36
2018-06-19T03:17:19.098Z,95.65
2018-06-19T03:18:19.845Z,95.45
2018-06-19T03:19:19.410Z,95.40
2018-06-19T03:20:19.017Z,95.45
2018-06-19T03:21:19.843Z,95.60
2018-06-19T03:22:18.975Z,95.98
2018-06-19T03:23:19.846Z,95.79
2018-06-19T03:24:18.959Z,96.47
2018-06-19T03:25:18.895Z,96.37
2018-06-19T03:26:18.867Z,97.04
2018-06-19T03:27:18.912Z,96.75
2018-06-19T03:28:18.819Z,96.85
2018-06-19T03:29:18.805Z,97.04
2018-06-19T03:30:18.981Z,97.52
2018-06-19T03:31:18.748Z,98.00
2018-06-19T03:32:18.724Z,97.91
2018-06-19T03:33:18.701Z,98.48
2018-06-19T03:34:19.348Z,98.58
2018-06-19T03:35:18.695Z,98.48
2018-06-19T03:36:18.627Z,98.39
2018-06-19T03:37:18.618Z,98.00
2018-06-19T03:38:18.641Z,98.53
2018-06-19T03:39:18.559Z,98.53
2018-06-19T03:40:18.910Z,98.63
2018-06-19T03:41:18.508Z,99.30
2018-06-19T03:42:18.494Z,99.58
2018-06-19T03:43:19.349Z,99.73
2018-06-19T03:44:18.438Z,99.99
2018-06-19T03:45:18.554Z,99.99
2018-06-19T03:46:19.350Z,99.87
2018-06-19T03:47:18.371Z,99.78
2018-06-19T03:48:18.342Z,99.99
2018-06-19T03:49:18.852Z,99.99
2018-06-19T03:50:18.343Z,99.99
2018-06-19T03:51:18.269Z,99.99
2018-06-19T03:52:18.850Z,99.99
2018-06-19T03:53:18.227Z,99.99
2018-06-19T03:54:18.198Z,99.99
2018-06-19T03:55:18.226Z,99.99
2018-06-19T03:56:18.153Z,99.97
2018-06-19T03:57:18.852Z,99.68
2018-06-19T03:58:18.104Z,99.78
2018-06-19T03:59:18.081Z,99.99
2018-06-19T04:00:18.094Z,99.99
2018-06-19T04:01:18.097Z,99.54
2018-06-19T04:02:18.066Z,99.92
2018-06-19T04:03:18.031Z,99.73
2018-06-19T04:04:17.963Z,99.15
2018-06-19T04:05:17.941Z,99.15
2018-06-19T04:06:17.915Z,99.54
2018-06-19T04:07:17.938Z,99.54
2018-06-19T04:08:17.869Z,99.63
2018-06-19T04:09:18.355Z,99.44
2018-06-19T04:10:17.819Z,99.54
2018-06-19T04:11:17.800Z,99.63
2018-06-19T04:12:17.830Z,99.63
2018-06-19T04:13:17.750Z,98.96
2018-06-19T04:14:18.375Z,98.96
2018-06-19T04:15:17.704Z,98.39
2018-06-19T04:16:17.685Z,98.48
2018-06-19T04:17:17.807Z,98.29
2018-06-19T04:18:17.634Z,98.96
2018-06-19T04:19:17.611Z,98.58
2018-06-19T04:20:17.589Z,98.58
2018-06-19T04:21:17.564Z,98.29
2018-06-19T04:22:17.914Z,98.63
2018-06-19T04:23:17.522Z,98.05
2018-06-19T04:24:17.500Z,98.05
2018-06-19T04:25:17.521Z,97.96
2018-06-19T04:26:17.455Z,98.44
2018-06-19T04:27:17.434Z,98.53
2018-06-19T04:28:17.405Z,97.96
2018-06-19T04:29:17.931Z,97.86
2018-06-19T04:30:17.357Z,97.86
2018-06-19T04:31:17.344Z,97.38
2018-06-19T04:32:17.359Z,97.76
2018-06-19T04:33:17.297Z,97.76
2018-06-19T04:34:17.270Z,97.28
2018-06-19T04:35:17.246Z,96.90
2018-06-19T04:36:17.861Z,97.19
2018-06-19T04:37:17.243Z,96.47
2018-06-19T04:38:17.173Z,95.50
2018-06-19T04:39:17.155Z,95.45
2018-06-19T04:40:17.130Z,94.92
2018-06-19T04:41:17.151Z,94.92
2018-06-19T04:42:17.865Z,95.31
2018-06-19T04:43:17.129Z,94.83
2018-06-19T04:44:17.042Z,94.54
2018-06-19T04:45:18.277Z,94.73
2018-06-19T04:46:17.000Z,94.45
2018-06-19T04:47:16.976Z,94.35
2018-06-19T04:48:17.421Z,93.96
2018-06-19T04:49:16.927Z,93.68
2018-06-19T04:50:16.907Z,93.96
2018-06-19T04:51:17.867Z,93.48
2018-06-19T04:52:16.860Z,93.19
2018-06-19T04:53:16.919Z,93.19
2018-06-19T04:54:16.862Z,93.19
2018-06-19T04:55:16.797Z,92.85
2018-06-19T04:56:16.772Z,92.66
2018-06-19T04:57:16.751Z,91.80
2018-06-19T04:58:16.737Z,91.03
2018-06-19T04:59:16.761Z,91.31
2018-06-19T05:00:16.687Z,90.35
2018-06-19T05:01:17.369Z,89.68
2018-06-19T05:02:16.650Z,89.68
2018-06-19T05:03:16.623Z,89.29
2018-06-19T05:04:16.939Z,89.20
2018-06-19T05:05:16.579Z,89.39
2018-06-19T05:06:16.552Z,88.14
2018-06-19T05:07:17.369Z,88.14
2018-06-19T05:08:16.507Z,87.85
2018-06-19T05:09:16.932Z,86.89
2018-06-19T05:10:16.470Z,86.12
2018-06-19T05:11:16.452Z,85.06
2018-06-19T05:12:16.425Z,85.25
2018-06-19T05:13:16.398Z,84.77
2018-06-19T05:14:16.432Z,83.62
2018-06-19T05:15:16.356Z,84.53
2018-06-19T05:16:16.341Z,83.28
2018-06-19T05:17:16.311Z,84.14
2018-06-19T05:18:16.872Z,82.98
2018-06-19T05:19:16.312Z,83.18
2018-06-19T05:20:16.930Z,82.79
2018-06-19T05:21:16.272Z,82.89
2018-06-19T05:22:16.247Z,83.28
2018-06-19T05:23:16.197Z,82.50
2018-06-19T05:24:16.872Z,82.54
2018-06-19T05:25:16.139Z,82.54
2018-06-19T05:26:16.117Z,81.87
2018-06-19T05:27:16.140Z,81.20
2018-06-19T05:28:16.072Z,81.68
2018-06-19T05:29:16.878Z,81.39
2018-06-19T05:30:16.085Z,81.29
2018-06-19T05:31:16.015Z,81.29
2018-06-19T05:32:16.034Z,81.39
2018-06-19T05:33:15.962Z,81.39
2018-06-19T05:34:15.941Z,81.58
2018-06-19T05:35:15.919Z,81.48
2018-06-19T05:36:16.451Z,81.77
2018-06-19T05:37:15.891Z,81.87
2018-06-19T05:38:15.859Z,81.77
2018-06-19T05:39:15.831Z,81.58
2018-06-19T05:40:15.818Z,81.58
2018-06-19T05:41:15.847Z,81.77
2018-06-19T05:42:15.769Z,81.68
2018-06-19T05:43:16.377Z,81.58
2018-06-19T05:44:15.734Z,81.68
2018-06-19T05:45:16.381Z,81.48
2018-06-19T05:46:15.760Z,81.87
2018-06-19T05:47:15.662Z,81.29
2018-06-19T05:48:16.385Z,81.48
2018-06-19T05:49:15.660Z,81.58
2018-06-19T05:50:16.384Z,81.20
2018-06-19T05:51:15.573Z,81.63
2018-06-19T05:52:15.602Z,81.68
2018-06-19T05:53:15.531Z,81.73
2018-06-19T05:54:15.513Z,81.45
2018-06-19T05:55:16.392Z,82.31
2018-06-19T05:56:15.469Z,82.21
2018-06-19T05:57:15.941Z,82.50
2018-06-19T05:58:15.423Z,82.31
2018-06-19T05:59:16.421Z,82.70
2018-06-19T06:00:15.407Z,82.70
2018-06-19T06:01:15.358Z,82.70
2018-06-19T06:02:15.438Z,82.79
2018-06-19T06:03:15.324Z,82.50
2018-06-19T06:04:15.887Z,82.12
2018-06-19T06:05:15.271Z,82.31
2018-06-19T06:06:15.247Z,82.41
2018-06-19T06:07:15.441Z,82.60
2018-06-19T06:08:15.204Z,82.21
2018-06-19T06:09:15.224Z,82.60
2018-06-19T06:10:15.165Z,82.31
2018-06-19T06:11:15.178Z,81.83
2018-06-19T06:12:15.885Z,82.27
2018-06-19T06:13:15.097Z,82.85
2018-06-19T06:14:15.128Z,81.83
2018-06-19T06:15:15.890Z,81.70
2018-06-19T06:16:15.033Z,81.50
2018-06-19T06:17:15.442Z,81.60
2018-06-19T06:18:14.987Z,81.35
2018-06-19T06:19:14.963Z,81.12
2018-06-19T06:20:14.942Z,81.40
2018-06-19T06:21:15.449Z,81.79
2018-06-19T06:22:14.898Z,81.88
2018-06-19T06:23:14.920Z,81.98
2018-06-19T06:24:14.864Z,82.08
2018-06-19T06:25:14.871Z,82.46
2018-06-19T06:26:15.397Z,81.88
2018-06-19T06:27:14.827Z,82.75
2018-06-19T06:28:15.389Z,82.65
2018-06-19T06:29:14.786Z,82.75
2018-06-19T06:30:15.393Z,82.17
2018-06-19T06:31:14.703Z,82.27
2018-06-19T06:32:14.723Z,81.60
2018-06-19T06:33:15.390Z,79.96
2018-06-19T06:34:14.632Z,79.86
2018-06-19T06:35:15.393Z,79.86
2018-06-19T06:36:14.623Z,79.00
2018-06-19T06:37:15.396Z,79.71
2018-06-19T06:38:14.544Z,78.03
2018-06-19T06:39:15.393Z,78.81
2018-06-19T06:40:14.543Z,78.71
2018-06-19T06:41:15.407Z,79.58
2018-06-19T06:42:14.452Z,79.10
2018-06-19T06:43:15.399Z,79.28
2018-06-19T06:44:14.455Z,78.61
2018-06-19T06:45:14.386Z,78.94
2018-06-19T06:46:14.463Z,78.85
2018-06-19T06:47:14.343Z,79.33
2018-06-19T06:48:14.898Z,78.81
2018-06-19T06:49:14.297Z,79.03
2018-06-19T06:50:14.915Z,79.61
2018-06-19T06:51:14.298Z,78.85
2018-06-19T06:52:14.451Z,79.71
2018-06-19T06:53:14.211Z,80.58
2018-06-19T06:54:14.185Z,80.10
2018-06-19T06:55:14.903Z,80.58
2018-06-19T06:56:14.173Z,79.71
2018-06-19T06:57:14.165Z,78.94
2018-06-19T06:58:14.900Z,78.85
2018-06-19T06:59:14.075Z,79.03
2018-06-19T07:00:14.901Z,79.23
2018-06-19T07:01:14.107Z,80.38
2018-06-19T07:02:14.054Z,80.38
2018-06-19T07:03:14.899Z,80.87
2018-06-19T07:04:13.981Z,81.25
2018-06-19T07:05:14.905Z,80.68
2018-06-19T07:06:13.923Z,79.71
2018-06-19T07:07:13.940Z,80.23
2018-06-19T07:08:14.405Z,79.56
2018-06-19T07:09:13.853Z,79.85
2018-06-19T07:10:13.891Z,79.17
2018-06-19T07:11:13.960Z,78.88
2018-06-19T07:12:13.840Z,78.40
2018-06-19T07:13:13.954Z,76.96
2018-06-19T07:14:13.750Z,75.99
2018-06-19T07:15:14.403Z,76.09
2018-06-19T07:16:13.714Z,75.90
2018-06-19T07:17:13.725Z,75.99
2018-06-19T07:18:14.405Z,76.86
2018-06-19T07:19:13.788Z,77.06
2018-06-19T07:20:14.411Z,77.15
2018-06-19T07:21:13.598Z,77.34
2018-06-19T07:22:13.613Z,78.11
2018-06-19T07:23:14.408Z,78.02
2018-06-19T07:24:13.558Z,77.44
2018-06-19T07:25:13.511Z,78.88
2018-06-19T07:26:13.563Z,79.36
2018-06-19T07:27:13.971Z,78.88
2018-06-19T07:28:13.438Z,78.44
2018-06-19T07:29:13.422Z,78.73
2018-06-19T07:30:13.905Z,78.63
2018-06-19T07:31:13.379Z,77.96
2018-06-19T07:32:13.428Z,77.19
2018-06-19T07:33:13.907Z,76.90
2018-06-19T07:34:13.311Z,77.09
2018-06-19T07:35:13.908Z,77.00
2018-06-19T07:36:13.272Z,77.19
2018-06-19T07:37:13.295Z,76.90
2018-06-19T07:38:13.925Z,77.09
2018-06-19T07:39:13.204Z,76.42
2018-06-19T07:40:13.465Z,76.23
2018-06-19T07:41:13.161Z,76.61
2018-06-19T07:42:13.909Z,77.00
2018-06-19T07:43:13.167Z,77.38
2018-06-19T07:44:13.919Z,77.00
2018-06-19T07:45:13.082Z,76.80
2018-06-19T07:46:13.931Z,77.38
2018-06-19T07:47:13.036Z,77.28
2018-06-19T07:48:13.469Z,76.90
2018-06-19T07:49:12.988Z,77.00
2018-06-19T07:50:13.486Z,76.42
2018-06-19T07:51:12.947Z,75.55
2018-06-19T07:52:12.924Z,74.33
2018-06-19T07:53:13.420Z,74.43
2018-06-19T07:54:12.881Z,74.14
2018-06-19T07:55:12.908Z,74.24
2018-06-19T07:56:13.419Z,74.82
2018-06-19T07:57:12.867Z,73.66
2018-06-19T07:58:13.417Z,73.27
2018-06-19T07:59:12.777Z,73.08
2018-06-19T08:00:12.800Z,73.47
2018-06-19T08:01:13.416Z,73.18
2018-06-19T08:02:12.716Z,73.57
2018-06-19T08:03:12.691Z,73.47
2018-06-19T08:04:13.416Z,74.91
2018-06-19T08:05:12.699Z,73.57
2018-06-19T08:06:12.629Z,73.27
2018-06-19T08:07:12.610Z,72.69
2018-06-19T08:08:12.585Z,73.27
2018-06-19T08:09:13.475Z,73.47
2018-06-19T08:10:12.599Z,75.01
2018-06-19T08:11:13.417Z,74.62
2018-06-19T08:12:12.502Z,73.66
2018-06-19T08:13:13.419Z,75.01
2018-06-19T08:14:12.458Z,73.85
2018-06-19T08:15:12.485Z,73.11
2018-06-19T08:16:12.419Z,70.19
2018-06-19T08:17:12.440Z,69.90
2018-06-19T08:18:12.381Z,71.54
2018-06-19T08:19:12.358Z,70.90
2018-06-19T08:20:12.339Z,70.86
2018-06-19T08:21:12.357Z,71.38
2018-06-19T08:22:12.342Z,70.80
2018-06-19T08:23:12.271Z,70.61
2018-06-19T08:24:12.253Z,70.51
2018-06-19T08:25:12.230Z,70.32
2018-06-19T08:26:12.254Z,70.22
2018-06-19T08:27:12.187Z,70.42
2018-06-19T08:28:12.225Z,70.22
2018-06-19T08:29:12.150Z,70.13
2018-06-19T08:30:12.124Z,70.42
2018-06-19T08:31:12.106Z,69.84
2018-06-19T08:32:12.089Z,70.03
2018-06-19T08:33:12.116Z,69.26
2018-06-19T08:34:12.048Z,69.64
2018-06-19T08:35:12.023Z,70.42
2018-06-19T08:36:12.002Z,69.93
2018-06-19T08:37:11.979Z,69.74
2018-06-19T08:38:12.010Z,69.26
2018-06-19T08:39:11.992Z,69.07
2018-06-19T08:40:11.919Z,69.64
2018-06-19T08:41:11.902Z,69.55
2018-06-19T08:42:11.871Z,70.26
2018-06-19T08:43:11.855Z,70.36
2018-06-19T08:44:11.879Z,67.46
2018-06-19T08:45:12.425Z,66.88
2018-06-19T08:46:11.828Z,65.53
2018-06-19T08:47:11.774Z,65.75
2018-06-19T08:48:11.749Z,65.37
2018-06-19T08:49:11.727Z,64.59
2018-06-19T08:50:12.434Z,62.95
2018-06-19T08:51:11.732Z,65.08
2018-06-19T08:52:11.668Z,64.50
2018-06-19T08:53:11.643Z,64.69
2018-06-19T08:54:11.629Z,65.37
2018-06-19T08:55:11.688Z,65.17
2018-06-19T08:56:11.985Z,65.37
2018-06-19T08:57:11.561Z,65.47
2018-06-19T08:58:11.550Z,65.17
2018-06-19T08:59:11.521Z,64.72
2018-06-19T09:00:11.560Z,65.11
2018-06-19T09:01:11.546Z,65.30
2018-06-19T09:02:11.463Z,65.11
2018-06-19T09:03:11.443Z,64.72
2018-06-19T09:04:11.419Z,65.11
2018-06-19T09:05:11.402Z,64.92
2018-06-19T09:06:11.422Z,64.34
2018-06-19T09:07:11.365Z,64.27
2018-06-19T09:08:11.938Z,63.79
2018-06-19T09:09:11.343Z,62.63
2018-06-19T09:10:11.298Z,62.92
2018-06-19T09:11:11.317Z,64.59
2018-06-19T09:12:11.259Z,62.76
2018-06-19T09:13:11.256Z,62.37
2018-06-19T09:14:11.933Z,62.37
2018-06-19T09:15:11.199Z,63.53
2018-06-19T09:16:11.224Z,62.79
2018-06-19T09:17:11.204Z,62.79
2018-06-19T09:18:11.144Z,60.95
2018-06-19T09:19:11.123Z,61.43
2018-06-19T09:20:11.959Z,60.66
2018-06-19T09:21:11.082Z,60.27
2018-06-19T09:22:11.102Z,62.01
2018-06-19T09:23:11.045Z,61.15
2018-06-19T09:24:11.082Z,60.98
2018-06-19T09:25:11.012Z,59.63
2018-06-19T09:26:11.942Z,60.04
2018-06-19T09:27:11.021Z,59.84
2018-06-19T09:28:10.953Z,58.88
2018-06-19T09:29:10.929Z,59.07
2018-06-19T09:30:10.918Z,59.20
2018-06-19T09:31:10.897Z,57.45
2018-06-19T09:32:10.919Z,57.29
2018-06-19T09:33:10.857Z,58.00
2018-06-19T09:34:10.841Z,57.22
2018-06-19T09:35:10.821Z,56.64
2018-06-19T09:36:10.804Z,55.38
2018-06-19T09:37:10.825Z,55.08
2018-06-19T09:38:10.773Z,54.14
2018-06-19T09:39:10.750Z,53.95
2018-06-19T09:40:10.736Z,54.05
2018-06-19T09:41:10.774Z,54.05
2018-06-19T09:42:10.701Z,53.10
2018-06-19T09:43:10.685Z,52.72
2018-06-19T09:44:10.671Z,52.55
2018-06-19T09:45:10.655Z,52.76
2018-06-19T09:46:10.690Z,52.35
2018-06-19T09:47:10.619Z,52.15
2018-06-19T09:48:10.603Z,51.77
2018-06-19T09:49:10.596Z,51.38
2018-06-19T09:50:10.570Z,52.42
2018-06-19T09:51:10.611Z,52.33
2018-06-19T09:52:10.534Z,52.42
2018-06-19T09:53:10.524Z,52.06
2018-06-19T09:54:10.516Z,51.28
2018-06-19T09:55:10.500Z,51.18
2018-06-19T09:56:10.516Z,51.18
2018-06-19T09:57:10.499Z,51.40
2018-06-19T09:58:10.491Z,51.11
2018-06-19T09:59:10.435Z,51.01
2018-06-19T10:00:10.405Z,50.73
2018-06-19T10:01:10.388Z,51.31
2018-06-19T10:02:10.419Z,50.63
2018-06-19T10:03:10.524Z,51.26
2018-06-19T10:04:10.353Z,51.84
2018-06-19T10:05:10.327Z,52.69
2018-06-19T10:06:10.312Z,52.72
2018-06-19T10:07:10.299Z,53.17
2018-06-19T10:08:10.322Z,54.14
2018-06-19T10:09:10.259Z,53.95
2018-06-19T10:10:10.253Z,53.85
2018-06-19T10:11:10.283Z,53.75
2018-06-19T10:12:10.327Z,53.95
2018-06-19T10:13:10.220Z,53.78
2018-06-19T10:14:10.186Z,53.00
2018-06-19T10:15:10.178Z,53.08
2018-06-19T10:16:10.516Z,54.05
2018-06-19T10:17:10.135Z,53.85
2018-06-19T10:18:10.119Z,53.85
2018-06-19T10:19:10.098Z,53.75
2018-06-19T10:20:10.143Z,53.27
2018-06-19T10:21:10.072Z,52.98
2018-06-19T10:22:10.077Z,52.88
2018-06-19T10:23:10.039Z,53.27
2018-06-19T10:24:10.028Z,52.86
2018-06-19T10:25:10.060Z,53.66
2018-06-19T10:26:09.983Z,53.83
2018-06-19T10:27:09.975Z,53.73
2018-06-19T10:28:09.955Z,53.92
2018-06-19T10:29:09.935Z,53.89
2018-06-19T10:30:09.960Z,54.67
2018-06-19T10:31:10.467Z,55.32
2018-06-19T10:32:09.886Z,55.52
2018-06-19T10:33:09.918Z,56.20
2018-06-19T10:34:09.845Z,56.16
2018-06-19T10:35:09.874Z,55.98
2018-06-19T10:36:09.869Z,56.36
2018-06-19T10:37:09.793Z,56.26
2018-06-19T10:38:09.771Z,55.81
2018-06-19T10:39:10.466Z,55.81
2018-06-19T10:40:09.757Z,55.35
2018-06-19T10:41:09.763Z,56.32
2018-06-19T10:42:09.700Z,55.35
2018-06-19T10:43:09.702Z,55.54
2018-06-19T10:44:10.464Z,54.58
2018-06-19T10:45:09.648Z,53.89
2018-06-19T10:46:09.677Z,53.73
2018-06-19T10:47:09.616Z,54.50
2018-06-19T10:48:09.637Z,54.11
2018-06-19T10:49:10.468Z,54.24
2018-06-19T10:50:09.571Z,54.92
2018-06-19T10:51:09.542Z,55.41
2018-06-19T10:52:09.558Z,55.99
2018-06-19T10:53:09.504Z,55.60
2018-06-19T10:54:10.502Z,53.66
2018-06-19T10:55:09.473Z,52.52
2018-06-19T10:56:09.496Z,52.23
2018-06-19T10:57:09.439Z,53.10
2018-06-19T10:58:09.427Z,52.84
2018-06-19T10:59:09.410Z,53.81
2018-06-19T11:00:09.386Z,51.26
2018-06-19T11:01:09.412Z,51.26
2018-06-19T11:02:09.351Z,51.93
2018-06-19T11:03:09.339Z,52.72
2018-06-19T11:04:09.569Z,53.97
2018-06-19T11:05:09.337Z,52.72
2018-06-19T11:06:09.285Z,52.42
2018-06-19T11:07:09.275Z,52.13
2018-06-19T11:08:09.253Z,53.00
2018-06-19T11:09:09.280Z,52.72
2018-06-19T11:10:09.218Z,52.33
2018-06-19T11:11:09.243Z,52.52
2018-06-19T11:12:09.183Z,52.72
2018-06-19T11:13:09.178Z,52.52
2018-06-19T11:14:09.233Z,52.81
2018-06-19T11:15:09.197Z,53.27
2018-06-19T11:16:09.122Z,52.40
2018-06-19T11:17:09.108Z,52.98
2018-06-19T11:18:09.087Z,55.02
2018-06-19T11:19:09.074Z,54.53
2018-06-19T11:20:09.104Z,54.34
2018-06-19T11:21:09.035Z,54.21
2018-06-19T11:22:09.019Z,54.11
2018-06-19T11:23:08.997Z,54.02
2018-06-19T11:24:08.982Z,54.28
2018-06-19T11:25:09.010Z,54.86
2018-06-19T11:26:08.950Z,54.86
2018-06-19T11:27:08.931Z,54.77
2018-06-19T11:28:08.916Z,55.16
2018-06-19T11:29:09.043Z,55.52
2018-06-19T11:30:08.879Z,55.90
2018-06-19T11:31:08.864Z,55.90
2018-06-19T11:32:08.840Z,56.03
2018-06-19T11:33:08.841Z,56.03
2018-06-19T11:34:08.856Z,55.54
2018-06-19T11:35:08.802Z,55.74
2018-06-19T11:36:08.775Z,55.47
2018-06-19T11:37:08.766Z,55.77
2018-06-19T11:38:08.777Z,55.57
2018-06-19T11:39:08.730Z,54.44
2018-06-19T11:40:08.699Z,53.95
2018-06-19T11:41:08.883Z,53.17
2018-06-19T11:42:08.662Z,52.98
2018-06-19T11:43:08.665Z,52.98
2018-06-19T11:44:08.650Z,53.75
2018-06-19T11:45:08.622Z,52.72
2018-06-19T11:46:08.638Z,53.00
2018-06-19T11:47:08.583Z,53.30
2018-06-19T11:48:08.561Z,53.81
2018-06-19T11:49:08.584Z,53.06
2018-06-19T11:50:08.525Z,53.06
2018-06-19T11:51:08.564Z,52.76
2018-06-19T11:52:08.516Z,52.57
2018-06-19T11:53:08.491Z,52.19
2018-06-19T11:54:08.484Z,52.86
2018-06-19T11:55:08.448Z,52.86
2018-06-19T11:56:08.485Z,52.47
2018-06-19T11:57:08.412Z,52.40
2018-06-19T11:58:08.403Z,52.59
2018-06-19T11:59:08.377Z,52.79
2018-06-19T12:00:08.415Z,52.98
2018-06-19T12:01:08.354Z,52.72
2018-06-19T12:02:08.330Z,52.40
2018-06-19T12:03:08.357Z,51.72
2018-06-19T12:04:08.994Z,51.50
2018-06-19T12:05:08.326Z,51.40
2018-06-19T12:06:08.268Z,51.89
2018-06-19T12:07:08.295Z,52.86
2018-06-19T12:08:08.233Z,52.57
2018-06-19T12:09:08.998Z,52.67
2018-06-19T12:10:08.246Z,52.57
2018-06-19T12:11:08.193Z,52.19
2018-06-19T12:12:08.169Z,52.09
2018-06-19T12:13:08.248Z,52.94
2018-06-19T12:14:08.142Z,53.13
2018-06-19T12:15:08.997Z,53.59
2018-06-19T12:16:08.145Z,54.36
2018-06-19T12:17:08.088Z,54.85
2018-06-19T12:18:08.134Z,54.94
2018-06-19T12:19:08.053Z,55.73
2018-06-19T12:20:08.049Z,55.79
2018-06-19T12:21:08.021Z,55.60
2018-06-19T12:22:08.007Z,55.89
2018-06-19T12:23:08.072Z,55.31
2018-06-19T12:24:07.995Z,55.99
2018-06-19T12:25:07.955Z,55.99
2018-06-19T12:26:07.935Z,56.09
2018-06-19T12:27:07.918Z,55.50
2018-06-19T12:28:07.947Z,55.96
2018-06-19T12:29:07.885Z,55.99
2018-06-19T12:30:07.866Z,56.35
2018-06-19T12:31:07.850Z,56.67
2018-06-19T12:32:07.829Z,56.67
2018-06-19T12:33:08.408Z,57.54
2018-06-19T12:34:07.800Z,57.28
2018-06-19T12:35:07.828Z,56.50
2018-06-19T12:36:07.765Z,56.30
2018-06-19T12:37:07.764Z,56.01
2018-06-19T12:38:07.732Z,56.01
2018-06-19T12:39:07.711Z,55.92
2018-06-19T12:40:07.736Z,56.11
2018-06-19T12:41:07.682Z,56.01
2018-06-19T12:42:07.660Z,56.98
2018-06-19T12:43:07.679Z,57.28
2018-06-19T12:44:07.622Z,57.28
2018-06-19T12:45:07.668Z,57.34
2018-06-19T12:46:07.592Z,57.83
2018-06-19T12:47:07.578Z,57.96
2018-06-19T12:48:07.562Z,58.34
2018-06-19T12:49:07.541Z,58.44
2018-06-19T12:50:07.566Z,58.54
2018-06-19T12:51:07.551Z,58.34
2018-06-19T12:52:07.486Z,58.44